Flight Track Log - Related Links

Times and Time Zones

All times are in EDT time to prevent confusion due to time zone crossing. See the N675MC flight status page for this flight to view local times or setup timezone preferences in your user account.

Time Position Orientation Groundspeed Altitude Reporting Facility
EDT Latitude Longitude Course Direction KTS MPH feet Rate Location/Type
Wed 07:29:35 PM 38.7333 -90.3167 79° East 177 204 1,800  Level Gateway (St. Louis) TRACON
Wed 07:30:29 PM 38.7167 -90.2333 104° East 248 285 4,500 2,205 Climbing Gateway (St. Louis) TRACON
Wed 07:31:32 PM 38.7181 -90.1531 89° East 284 327 6,100 2,081 Climbing Kansas City Center
Wed 07:32:00 PM 38.9962 -89.9175 74° East  Level Estimated
Wed 07:32:33 PM 38.7369 -90.0503 77° East 299 344 8,800  Level Kansas City Center
Wed 07:33:00 PM 38.9670 -89.7842 106° East  Level FlightAware Approximate
Wed 07:33:38 PM 38.7539 -89.9386 79° East 315 362 10,700  Level Kansas City Center
Wed 07:34:00 PM 39.0297 -89.6717 90° East  Level Estimated
Wed 07:34:39 PM 38.7664 -89.7778 84° East 369 425 13,000  Level Kansas City Center
Wed 07:35:00 PM 39.0923 -89.5589 79° East  Level Estimated
Wed 07:35:42 PM 38.7750 -89.6361 85° East 382 440 15,300  Level Kansas City Center
Wed 07:36:42 PM 38.7900 -89.4936 82° East 400 460 17,500 1,967 Climbing Kansas City Center
Wed 07:37:44 PM 38.8081 -89.3344 82° East 419 482 19,300 1,776 Climbing Kansas City Center
Wed 07:38:47 PM 38.8114 -89.1797 88° East 432 497 21,200 1,742 Climbing Kansas City Center
Wed 07:39:48 PM 38.8128 -89.0208 89° East 445 512 22,900 1,597 Climbing Kansas City Center
Wed 07:40:51 PM 38.8453 -88.8547 76° East 452 520 24,500 1,016 Climbing Kansas City Center
Wed 07:41:52 PM 38.9072 -88.7100 61° Northeast 460 529 25,000 1,452 Climbing Kansas City Center
Wed 07:42:55 PM 38.9558 -88.5392 70° East 471 542 27,500 1,887 Climbing Kansas City Center
Wed 07:43:56 PM 38.9964 -88.3869 71° East 457 526 28,900 720 Climbing Kansas City Center
Wed 07:45:00 PM 39.0325 -88.2272 74° East 459 528 29,000  Climbing Kansas City Center
Wed 07:45:52 PM 39.0536 -88.0889 79° East 491 565 28,900  Descending Indianapolis Center
Wed 07:46:54 PM 39.0858 -87.9136 77° East 498 573 29,000 48 Climbing Indianapolis Center
Wed 07:47:56 PM 39.1231 -87.7025 77° East 500 575 29,000  Level Indianapolis Center
Wed 07:48:58 PM 39.1475 -87.5431 79° East 498 573 29,000  Level Indianapolis Center
Wed 07:49:59 PM 39.1711 -87.3675 80° East 499 574 29,000  Level Indianapolis Center
Wed 07:51:01 PM 39.1953 -87.1933 80° East 497 572 29,000  Level Indianapolis Center
Wed 07:52:03 PM 39.2250 -86.9833 80° East 500 575 29,000  Level Indianapolis Center
Wed 07:53:05 PM 39.2517 -86.8100 79° East 499 574 29,000  Level Indianapolis Center
Wed 07:54:06 PM 39.2858 -86.6389 75° East 498 573 29,000  Level Indianapolis Center
Wed 07:55:08 PM 39.3233 -86.4689 74° East 497 572 29,000  Level Indianapolis Center
Wed 07:56:10 PM 39.3650 -86.3028 72° East 494 568 29,000  Level Indianapolis Center
Wed 07:57:12 PM 39.4519 -86.1314 57° Northeast 483 556 29,000  Level Indianapolis Center
Wed 07:58:14 PM 39.5483 -86.0133 43° Northeast 483 556 29,000  Level Indianapolis Center
Wed 07:59:15 PM 39.6422 -85.8922 45° Northeast 484 557 29,000  Level Indianapolis Center
Wed 08:00:17 PM 39.7378 -85.7722 44° Northeast 484 557 29,000  Level Indianapolis Center
Wed 08:01:19 PM 39.8322 -85.6525 44° Northeast 481 554 29,000  Level Indianapolis Center
Wed 08:02:21 PM 39.9442 -85.5036 46° Northeast 481 554 29,000  Level Indianapolis Center
Wed 08:03:22 PM 40.0386 -85.3831 44° Northeast 480 552 29,000  Level Indianapolis Center
Wed 08:04:24 PM 40.1319 -85.2625 45° Northeast 475 547 29,000 -242 Level Indianapolis Center
Wed 08:05:26 PM 40.2261 -85.1439 44° Northeast 474 545 28,500 -732 Descending Indianapolis Center
Wed 08:06:27 PM 40.3197 -85.0328 42° Northeast 460 529 27,500 -976 Descending Indianapolis Center
Wed 08:07:29 PM 40.4117 -84.9206 43° Northeast 454 522 26,500 -1,258 Descending Indianapolis Center
Wed 08:08:31 PM 40.5053 -84.7983 45° Northeast 461 531 24,900 -1,561 Descending Indianapolis Center
Wed 08:09:32 PM 40.6144 -84.6583 44° Northeast 454 522 23,300 -927 Descending Indianapolis Center
Wed 08:10:34 PM 40.7017 -84.5472 44° Northeast 439 505 23,000 -145 Descending Indianapolis Center
Wed 08:11:36 PM 40.7925 -84.4303 44° Northeast 452 520 23,000  Level Indianapolis Center
Wed 08:12:37 PM 40.9103 -84.3792 18° North 459 528 23,000 -488 Level Indianapolis Center
Wed 08:13:39 PM 41.0314 -84.4028 352° North 442 509 22,000 -1,113 Descending Indianapolis Center
Wed 08:14:41 PM 41.1500 -84.4275 351° North 436 502 20,700 -1,257 Descending Indianapolis Center
Wed 08:15:24 PM 41.2217 -84.4375 354° North 393 452 19,800 -2,514 Descending Cleveland Center
Wed 08:16:26 PM 41.3444 -84.4447 357° North 372 428 16,300 -2,371 Descending Cleveland Center
Wed 08:17:28 PM 41.4439 -84.4506 357° North 363 418 14,900 -629 Descending Cleveland Center
Wed 08:18:30 PM 41.5411 -84.4211 13° North 381 438 15,000  Climbing Cleveland Center
Wed 08:19:32 PM 41.6219 -84.3261 41° Northeast 393 452 14,900 -196 Descending Cleveland Center
Wed 08:20:02 PM 41.6706 -84.2681 42° Northeast 384 442 14,700 -1,161 Descending Cleveland Center
Wed 08:20:34 PM 41.7069 -84.2250 41° Northeast 386 444 13,700 -2,027 Descending Cleveland Center
Wed 08:21:16 PM 41.7642 -84.1564 42° Northeast 359 413 12,200 -1,645 Descending Cleveland Center
Wed 08:21:36 PM 41.7794 -84.1333 48° Northeast 366 421 12,000 -179 Descending Cleveland Center
Wed 08:22:23 PM 41.8347 -84.0411 51° Northeast 381 438 12,000  Level Cleveland Center
Wed 08:22:38 PM 41.8442 -84.0236 54° Northeast 375 432 12,000 -492 Level Cleveland Center
Wed 08:23:24 PM 41.9039 -83.9167 53° Northeast 396 456 11,500 -581 Descending Cleveland Center
Wed 08:23:40 PM 41.9092 -83.9058 57° Northeast 392 451 11,400 -537 Descending Cleveland Center
Wed 08:24:31 PM 41.9822 -83.8047 46° Northeast 374 430 10,900 -484 Descending Cleveland Center
Wed 08:24:42 PM 41.9825 -83.8036 71° East 380 437 10,900 109 Level Cleveland Center
Wed 08:25:26 PM 42.0564 -83.7200 40° Northeast 381 438 11,000  Climbing Cleveland Center
Wed 08:25:43 PM 42.0783 -83.6942 41° Northeast 379 436 10,900 -98 Descending Cleveland Center
Wed 08:26:27 PM 42.1347 -83.6331 39° Northeast 346 398 10,900 97 Level Cleveland Center
Wed 08:26:45 PM 42.1522 -83.6092 45° Northeast 352 405 11,000 100 Climbing Cleveland Center
Wed 08:27:27 PM 42.1969 -83.5631 37° Northeast 258 297 11,000  Level Cleveland Center
Wed 08:27:47 PM 42.2147 -83.5419 41° Northeast 275 316 11,000 -581 Level Cleveland Center
Wed 08:28:29 PM 42.2597 -83.5100 28° Northeast 244 281 10,400 -968 Descending Cleveland Center
Wed 08:28:49 PM 42.2750 -83.4978 31° Northeast 247 284 10,000 -1,574 Descending Cleveland Center
Wed 08:29:30 PM 42.3203 -83.4622 30° Northeast 254 292 8,800 -1,548 Descending Cleveland Center
Wed 08:29:51 PM 42.3372 -83.4461 35° Northeast 256 295 8,400 -1,279 Descending Cleveland Center
Wed 08:30:31 PM 42.3825 -83.4147 27° Northeast 250 288 7,500 -1,279 Descending Cleveland Center
Wed 08:30:52 PM 42.3983 -83.3992 36° Northeast 251 289 7,100 -1,273 Descending Cleveland Center
Wed 08:31:37 PM 42.4319 -83.3453 50° Northeast 240 276 6,100 -1,161 Descending Cleveland Center
Wed 08:31:54 PM 42.4289 -83.3294 105° East 239 275 5,900 -1,258 Descending Cleveland Center
Wed 08:32:39 PM 42.4069 -83.2628 114° Southeast 218 251 4,800 -1,161 Descending Cleveland Center
Wed 08:32:56 PM 42.4019 -83.2517 121° Southeast 232 267 4,700 -1,333 Descending Cleveland Center
Wed 08:33:33 PM 42.3631 -83.2339 161° South 189 217 3,600 -1,279 Descending Cleveland Center
Wed 08:33:57 PM 42.3508 -83.2325 175° South 199 229 3,400 -787 Descending Cleveland Center
Wed 08:34:34 PM 42.3169 -83.2614 212° Southwest 181 208 2,800 -871 Descending Cleveland Center
Wed 08:34:59 PM 42.3069 -83.2675 204° Southwest 184 212 2,500 -689 Descending Cleveland Center
Wed 08:35:35 PM 42.2789 -83.2928 214° Southwest 140 161 2,100 -677 Descending Cleveland Center
Wed 08:36:01 PM 42.2697 -83.2969 199° South 161 185 1,800 -885 Descending Cleveland Center
Wed 08:36:36 PM 42.2436 -83.3161 209° Southwest 135 155 1,200 -871 Descending Cleveland Center
Wed 08:37:03 PM 42.2300 -83.3250 206° Southwest 137 158 900 -667 Descending Cleveland Center

Login

Don't have an account? Register now (free) for customized features, flight alerts, and more!